Aérodrome :
LOGIN :

S'inscrire | Disclaimer

   EN    FR    IT 

 










Légende :    VFR   VFR Marginal   IFR   IFR Intensif   IFR Très Intensif
Visi : 
Plafond : 
>= 8 km
>= 3000ft
5 à 8 km
1000 à 3000 ft
1500m à 5 km
500 à 1000 ft
800 à 1500m
200 à 500 ft
< 800m
< 200 ft
Symboles :   Orages  Brouillard  Fortes neiges  Fortes précipitations  Vent > 20 kt
SIGMETs :   Divers  Orages  Givrage  Turbulence  Onde Orograph.  Cendres Volcan.






- Altitude de l'aérodrome : 574 ft
- Code IATA : TEQ


LTBU - Corlu

DERNIER METAR :
  • 171620Z 11005KT CAVOK 06/02 Q1025 RMK RWY22 07004KT

METARs EXPIRÉS :
  • 171550Z 13006KT CAVOK 09/03 Q1025 RMK RWY22 13007KT
  • 171520Z 22002KT CAVOK 11/04 Q1025 RMK RWY22 VRB02KT
  • 171450Z 22004KT CAVOK 12/04 Q1025 RMK RWY22 20003KT 150V230
  • 171420Z 25005KT CAVOK 12/04 Q1025 RMK RWY22 24004KT 220V290
  • 171350Z 21006KT CAVOK 12/04 Q1025 RMK RWY22 VRB02KT

TAF TAF LTBU
Valide du 17 à 12h jusqu'au 18 à 12h UTC


171040Z 1712/1812 04012KT 9999 FEW030
BECMG 1716/1719 VRB02KT BKN010
BECMG 1719/1722 2500 BCFG
BECMG 1723/1802 0400 FG VV002
BECMG 1806/1808 3500 BR SCT015
BECMG 1808/1810 CAVOK



MET'MAP, la Météo Aéronautique d'un coup d'oeil ! - Copyright ORBIFLY Décembre 2007 - Disclaimer

ORBIFLY MET'MAP TEAM :

Programmation & Développement : Alexandra Zaïnal
Sur une idée originale de : Baudouin d'Aumeries
Assistance à la programmation : Marc-Olivier Méhu
Soutien technique & logistique : Manuel Goepfert

Contact : metmap@orbifly.com




SOURCES & CREDITS :

   NOAA